Time;durP1;ratioP1;P1;durP2;ratioP2;P2;SDS_P1;SDS_P2;PMS_P1;PMS_P2;Temp;Humidity;BMP_temperature;BMP_pressure;BME280_temperature;BME280_humidity;BME280_pressure;Samples;Min_cycle;Max_cycle;Signal;HPM_P1;HPM_P2
2024/01/27 00:00:00;;;;;;;9.45;4.38;;;6.20;99.90;;;;;;4987806;28;20051;-53
2024/01/27 00:02:26;;;;;;;10.40;3.15;;;6.10;99.90;;;;;;4987241;28;20509;-52
2024/01/27 00:04:51;;;;;;;9.20;2.75;;;6.10;99.90;;;;;;4987553;28;20027;-51
2024/01/27 00:07:17;;;;;;;7.13;2.80;;;6.00;99.90;;;;;;4987359;28;20094;-48
2024/01/27 00:09:43;;;;;;;8.43;2.60;;;6.00;99.90;;;;;;4988182;28;20027;-49
2024/01/27 00:12:08;;;;;;;11.55;2.72;;;5.90;99.90;;;;;;5004907;28;20027;-48
2024/01/27 00:14:37;;;;;;;4.47;2.55;;;5.90;99.90;;;;;;4990445;28;20137;-50
2024/01/27 00:17:03;;;;;;;5.88;2.45;;;5.90;99.90;;;;;;4988599;28;20050;-54
2024/01/27 00:19:28;;;;;;;8.02;2.95;;;6.10;99.90;;;;;;4987274;28;20026;-50
2024/01/27 00:21:54;;;;;;;8.02;3.15;;;6.10;99.90;;;;;;4986961;28;20074;-49
2024/01/27 00:24:19;;;;;;;5.10;2.28;;;6.20;99.90;;;;;;4987521;28;20034;-50
2024/01/27 00:26:45;;;;;;;7.68;3.25;;;6.10;99.90;;;;;;4984181;28;20030;-49
2024/01/27 00:29:11;;;;;;;11.25;2.95;;;6.10;99.90;;;;;;4983167;28;20038;-53
2024/01/27 00:31:36;;;;;;;7.78;2.35;;;6.00;99.90;;;;;;4983897;28;20087;-52
2024/01/27 00:34:02;;;;;;;6.55;2.25;;;5.90;99.90;;;;;;4982214;28;20466;-53
2024/01/27 00:36:27;;;;;;;8.85;2.85;;;5.90;99.90;;;;;;4983032;28;20479;-52
2024/01/27 00:38:53;;;;;;;3.67;2.15;;;5.90;99.90;;;;;;4982919;28;20090;-52
2024/01/27 00:41:19;;;;;;;9.40;2.38;;;5.90;99.90;;;;;;4982022;28;20050;-45
2024/01/27 00:43:45;;;;;;;7.47;2.80;;;5.80;99.90;;;;;;4983117;28;20050;-49
2024/01/27 00:46:10;;;;;;;10.43;2.83;;;5.60;99.90;;;;;;4981244;28;20026;-52
2024/01/27 00:48:36;;;;;;;12.15;2.88;;;5.60;99.90;;;;;;4982362;28;20037;-50
2024/01/27 00:51:01;;;;;;;9.68;2.90;;;5.60;99.90;;;;;;4982885;28;20035;-53
2024/01/27 00:53:27;;;;;;;6.20;2.33;;;5.50;99.90;;;;;;4983340;28;20034;-51
2024/01/27 00:55:53;;;;;;;7.15;2.35;;;5.40;99.90;;;;;;4983356;28;20062;-50
2024/01/27 00:58:18;;;;;;;7.25;2.33;;;5.50;99.90;;;;;;4983677;28;20058;-51
2024/01/27 01:00:44;;;;;;;2.97;2.22;;;5.90;99.90;;;;;;4983744;28;20090;-56
2024/01/27 01:03:09;;;;;;;7.07;2.45;;;5.90;99.90;;;;;;4998836;28;20030;-49
2024/01/27 01:05:35;;;;;;;14.73;2.88;;;5.70;99.90;;;;;;4983499;28;20033;-49
2024/01/27 01:08:00;;;;;;;7.55;2.80;;;5.60;99.90;;;;;;4982951;28;20027;-53
2024/01/27 01:10:26;;;;;;;5.45;2.40;;;5.40;99.90;;;;;;4984984;28;20107;-49
2024/01/27 01:12:52;;;;;;;8.05;2.42;;;5.40;99.90;;;;;;4983664;28;20482;-47
2024/01/27 01:15:17;;;;;;;11.25;2.78;;;5.40;99.90;;;;;;4984872;28;20031;-52
2024/01/27 01:17:43;;;;;;;16.65;3.38;;;5.30;99.90;;;;;;4999614;28;20031;-54
2024/01/27 01:20:09;;;;;;;9.60;3.50;;;5.30;99.90;;;;;;4984982;28;20375;-54
2024/01/27 01:22:34;;;;;;;9.23;2.70;;;5.20;99.90;;;;;;4984697;28;20042;-53
2024/01/27 01:25:00;;;;;;;9.00;2.70;;;5.10;99.90;;;;;;4983322;28;20023;-47
2024/01/27 01:27:25;;;;;;;13.98;3.33;;;4.90;99.90;;;;;;4999370;28;20031;-51
2024/01/27 01:29:51;;;;;;;4.40;2.17;;;5.20;99.90;;;;;;4999312;28;20046;-50
2024/01/27 01:32:16;;;;;;;7.55;2.58;;;5.10;99.90;;;;;;4983919;28;20046;-50
2024/01/27 01:34:42;;;;;;;16.92;3.47;;;5.00;99.90;;;;;;4983437;28;20027;-49
2024/01/27 01:37:07;;;;;;;11.27;2.65;;;4.90;99.90;;;;;;4983775;28;20023;-52
2024/01/27 01:39:33;;;;;;;10.63;2.53;;;4.70;99.90;;;;;;4999767;28;20027;-48
2024/01/27 01:41:58;;;;;;;8.60;2.35;;;4.70;99.90;;;;;;4991388;28;20256;-53
2024/01/27 01:44:30;;;;;;;7.93;2.80;;;4.70;99.90;;;;;;4988235;28;20031;-50
2024/01/27 01:46:56;;;;;;;20.63;3.38;;;4.60;99.90;;;;;;4982947;28;20499;-53
2024/01/27 01:49:22;;;;;;;10.35;2.72;;;4.60;99.90;;;;;;4984018;28;20490;-53
2024/01/27 01:51:48;;;;;;;10.05;2.70;;;4.50;99.90;;;;;;4981215;28;20074;-48
2024/01/27 01:54:13;;;;;;;10.27;3.35;;;5.00;99.90;;;;;;4982637;28;20125;-52
2024/01/27 01:56:39;;;;;;;8.45;2.55;;;4.40;99.90;;;;;;4982389;28;20042;-49
2024/01/27 01:59:05;;;;;;;7.35;2.88;;;4.30;99.90;;;;;;4980935;28;20030;-54
2024/01/27 02:01:30;;;;;;;10.40;2.65;;;4.20;99.90;;;;;;4980585;28;20019;-50
2024/01/27 02:03:56;;;;;;;8.48;3.55;;;4.30;99.90;;;;;;4996496;28;20110;-51
2024/01/27 02:06:22;;;;;;;8.55;2.90;;;4.30;99.90;;;;;;4996947;28;20030;-55
2024/01/27 02:08:48;;;;;;;13.02;3.38;;;4.20;99.90;;;;;;4981332;28;20110;-52
2024/01/27 02:11:14;;;;;;;7.85;1.92;;;4.30;99.90;;;;;;4981723;28;20031;-51
2024/01/27 02:13:40;;;;;;;11.23;2.97;;;4.20;99.90;;;;;;4982379;28;20034;-54
2024/01/27 02:16:05;;;;;;;10.05;3.05;;;4.10;99.90;;;;;;4981316;28;20035;-48
2024/01/27 02:18:31;;;;;;;14.48;2.40;;;4.00;99.90;;;;;;4981426;28;20030;-54
2024/01/27 02:20:56;;;;;;;11.30;3.83;;;3.90;99.90;;;;;;4996707;28;20037;-48
2024/01/27 02:23:22;;;;;;;5.40;2.97;;;3.80;99.90;;;;;;4981132;28;20257;-54
2024/01/27 02:25:47;;;;;;;8.65;2.13;;;3.80;99.90;;;;;;4981030;28;20042;-54
2024/01/27 02:28:13;;;;;;;7.03;2.40;;;3.70;99.90;;;;;;4980257;28;20027;-54
2024/01/27 02:30:39;;;;;;;6.72;2.80;;;3.70;99.90;;;;;;4982269;28;20035;-52
2024/01/27 02:33:05;;;;;;;12.55;2.53;;;3.80;99.90;;;;;;4982343;28;20027;-49
2024/01/27 02:35:30;;;;;;;5.82;2.13;;;3.80;99.90;;;;;;4982825;28;20038;-50
2024/01/27 02:37:56;;;;;;;13.23;2.80;;;3.80;99.90;;;;;;4981955;28;20023;-47
2024/01/27 02:40:21;;;;;;;9.45;2.38;;;3.70;99.90;;;;;;4982382;28;20058;-51
2024/01/27 02:42:47;;;;;;;11.68;3.42;;;3.70;99.90;;;;;;4982190;28;20027;-53
2024/01/27 02:45:12;;;;;;;4.82;2.30;;;3.80;99.90;;;;;;4982248;28;20035;-53
2024/01/27 02:47:38;;;;;;;11.63;2.65;;;4.00;99.90;;;;;;4996496;28;20030;-48
2024/01/27 02:50:06;;;;;;;9.07;3.08;;;3.80;99.90;;;;;;4981154;28;20038;-55
2024/01/27 02:52:32;;;;;;;3.85;2.40;;;3.90;99.90;;;;;;4997698;28;20026;-51
2024/01/27 02:54:57;;;;;;;9.70;2.92;;;3.80;99.90;;;;;;4981308;28;20473;-47
2024/01/27 02:57:23;;;;;;;12.93;2.70;;;3.80;99.90;;;;;;4980434;28;20073;-49
2024/01/27 02:59:49;;;;;;;12.40;2.97;;;3.80;99.90;;;;;;4982381;28;20026;-54
2024/01/27 03:02:15;;;;;;;9.13;3.08;;;3.80;99.90;;;;;;4981884;28;20594;-51
2024/01/27 03:04:40;;;;;;;3.85;2.17;;;3.80;99.90;;;;;;4998206;28;20047;-52
2024/01/27 03:07:06;;;;;;;13.25;2.95;;;3.90;99.90;;;;;;4984069;28;20023;-54
2024/01/27 03:09:32;;;;;;;5.15;2.38;;;3.90;99.90;;;;;;4983153;28;20035;-49
2024/01/27 03:11:57;;;;;;;6.57;2.67;;;3.80;99.90;;;;;;4983452;28;20027;-50
2024/01/27 03:14:23;;;;;;;8.18;2.40;;;3.80;99.90;;;;;;4983484;28;20026;-52
2024/01/27 03:16:49;;;;;;;7.22;2.33;;;3.70;99.90;;;;;;4999177;28;20414;-53
2024/01/27 03:19:14;;;;;;;7.03;2.33;;;4.00;99.90;;;;;;4983896;28;20038;-50
2024/01/27 03:21:40;;;;;;;8.15;1.92;;;3.80;99.90;;;;;;4984369;28;20449;-48
2024/01/27 03:24:05;;;;;;;11.73;3.70;;;3.60;99.90;;;;;;4983026;28;20026;-54
2024/01/27 03:26:31;;;;;;;7.65;2.95;;;3.60;99.90;;;;;;4985482;28;20549;-51
2024/01/27 03:28:57;;;;;;;6.03;1.95;;;3.50;99.90;;;;;;4983490;28;20038;-47
2024/01/27 03:31:23;;;;;;;6.38;2.03;;;3.50;99.90;;;;;;4986814;28;20023;-53
2024/01/27 03:33:49;;;;;;;6.20;2.45;;;3.40;99.90;;;;;;4986203;28;20019;-48
2024/01/27 03:36:15;;;;;;;9.05;2.97;;;3.40;99.90;;;;;;4986961;28;20027;-48
2024/01/27 03:38:41;;;;;;;7.55;3.08;;;3.40;99.90;;;;;;4986448;28;20034;-48
2024/01/27 03:41:06;;;;;;;6.82;2.75;;;3.60;99.90;;;;;;4986715;28;20489;-52
2024/01/27 03:43:34;;;;;;;9.45;2.67;;;3.40;99.90;;;;;;4995532;28;20030;-53
2024/01/27 03:46:00;;;;;;;14.75;3.22;;;3.50;99.90;;;;;;4995724;28;20034;-48
2024/01/27 03:48:26;;;;;;;7.05;3.08;;;3.50;99.90;;;;;;4980461;28;20031;-49
2024/01/27 03:50:51;;;;;;;12.10;3.25;;;3.50;99.90;;;;;;4980324;28;20432;-48
2024/01/27 03:53:17;;;;;;;7.57;4.10;;;3.50;99.90;;;;;;4980600;28;20039;-51
2024/01/27 03:55:43;;;;;;;9.60;4.45;;;3.40;99.90;;;;;;4980917;28;20034;-47
2024/01/27 03:58:08;;;;;;;14.77;3.20;;;3.50;99.90;;;;;;4984870;28;20041;-52
2024/01/27 04:00:34;;;;;;;12.85;3.38;;;3.50;99.90;;;;;;4986988;28;20031;-46
2024/01/27 04:03:00;;;;;;;7.30;2.80;;;3.60;99.90;;;;;;4985213;28;20094;-48
2024/01/27 04:05:27;;;;;;;13.23;3.63;;;3.40;99.90;;;;;;4984074;28;20030;-47
2024/01/27 04:07:52;;;;;;;14.88;2.92;;;3.30;99.90;;;;;;4980263;28;20445;-48
2024/01/27 04:10:19;;;;;;;11.63;3.45;;;3.30;99.90;;;;;;4980340;28;20030;-50
2024/01/27 04:12:44;;;;;;;9.57;2.67;;;3.30;99.90;;;;;;4980485;28;20038;-51
2024/01/27 04:15:10;;;;;;;10.88;2.65;;;3.20;99.90;;;;;;4979476;28;20034;-50
2024/01/27 04:17:38;;;;;;;11.48;4.30;;;3.30;99.90;;;;;;4980262;28;20035;-48
2024/01/27 04:20:04;;;;;;;7.32;2.90;;;3.30;99.90;;;;;;4995327;28;20118;-51
2024/01/27 04:22:30;;;;;;;10.55;3.20;;;3.30;99.90;;;;;;4979171;28;20026;-52
2024/01/27 04:24:56;;;;;;;10.25;3.08;;;3.20;99.90;;;;;;4998011;28;20054;-48
2024/01/27 04:27:22;;;;;;;7.13;2.53;;;3.10;99.90;;;;;;4983295;28;20027;-53
2024/01/27 04:29:47;;;;;;;9.18;2.85;;;3.10;99.90;;;;;;4997566;28;20027;-52
2024/01/27 04:32:13;;;;;;;8.27;2.83;;;3.00;99.90;;;;;;4983577;28;20034;-48
2024/01/27 04:34:39;;;;;;;12.90;3.70;;;3.00;99.90;;;;;;4983849;28;20054;-50
2024/01/27 04:37:05;;;;;;;12.02;3.70;;;3.20;99.90;;;;;;4982194;28;20029;-50
2024/01/27 04:39:30;;;;;;;5.85;3.70;;;2.80;99.90;;;;;;4982943;28;20023;-51
2024/01/27 04:41:56;;;;;;;14.73;3.78;;;2.90;99.90;;;;;;4983259;28;20402;-52
2024/01/27 04:44:21;;;;;;;9.13;3.97;;;2.90;99.90;;;;;;4983002;28;20505;-53
2024/01/27 04:46:48;;;;;;;16.05;4.45;;;2.90;99.90;;;;;;4983064;28;20495;-49
2024/01/27 04:49:14;;;;;;;10.38;3.65;;;2.80;99.90;;;;;;4980492;28;20423;-49
2024/01/27 04:51:40;;;;;;;11.70;3.45;;;2.70;99.90;;;;;;4979396;28;20035;-51
2024/01/27 04:54:06;;;;;;;6.93;3.53;;;2.60;99.90;;;;;;4979430;28;20078;-48
2024/01/27 04:56:31;;;;;;;11.23;4.18;;;2.60;99.90;;;;;;4979089;28;20106;-52
2024/01/27 04:58:57;;;;;;;5.97;2.80;;;2.60;99.90;;;;;;4979268;28;20034;-51
2024/01/27 05:01:22;;;;;;;12.50;3.83;;;2.60;99.90;;;;;;4979474;28;20042;-51
2024/01/27 05:03:48;;;;;;;10.13;3.00;;;2.70;99.90;;;;;;4977772;28;20497;-47
2024/01/27 05:06:14;;;;;;;15.32;3.45;;;2.60;99.90;;;;;;4976371;28;20023;-47
2024/01/27 05:08:39;;;;;;;6.45;3.80;;;2.60;99.90;;;;;;4976634;28;20118;-49
2024/01/27 05:11:05;;;;;;;13.63;2.78;;;2.60;99.90;;;;;;4978143;28;20031;-51
2024/01/27 05:13:30;;;;;;;4.47;2.90;;;2.50;99.90;;;;;;4978182;28;20038;-49
2024/01/27 05:15:56;;;;;;;10.82;3.47;;;2.50;99.90;;;;;;4978272;28;20375;-49
2024/01/27 05:18:22;;;;;;;7.85;3.97;;;2.50;99.90;;;;;;4978306;28;20050;-49
2024/01/27 05:20:47;;;;;;;7.80;3.65;;;2.40;99.90;;;;;;4976786;28;20033;-51
2024/01/27 05:23:13;;;;;;;6.97;3.00;;;2.50;99.90;;;;;;4977243;28;20027;-47
2024/01/27 05:25:39;;;;;;;11.93;3.67;;;2.50;99.90;;;;;;4978482;28;20019;-52
2024/01/27 05:28:05;;;;;;;14.35;3.72;;;2.50;99.90;;;;;;4978504;28;20026;-51
2024/01/27 05:30:30;;;;;;;20.45;5.60;;;2.50;99.90;;;;;;4978828;28;20027;-51
2024/01/27 05:32:56;;;;;;;8.68;3.60;;;2.60;99.90;;;;;;4977680;28;20023;-50
2024/01/27 05:35:21;;;;;;;7.35;3.40;;;2.50;99.90;;;;;;4977831;28;20035;-50
2024/01/27 05:37:47;;;;;;;19.45;4.20;;;2.50;99.90;;;;;;4977672;28;20093;-50
2024/01/27 05:40:12;;;;;;;12.23;3.92;;;2.50;99.90;;;;;;4976980;28;20026;-50
2024/01/27 05:42:40;;;;;;;13.02;3.72;;;2.60;99.90;;;;;;4991906;28;20031;-51
2024/01/27 05:45:06;;;;;;;12.70;4.18;;;2.60;99.90;;;;;;4978153;28;20078;-52
2024/01/27 05:47:32;;;;;;;12.80;3.75;;;2.60;99.90;;;;;;4979671;28;20027;-54
2024/01/27 05:49:57;;;;;;;14.77;4.30;;;2.60;99.90;;;;;;5027007;23;20045;-47
2024/01/27 05:52:25;;;;;;;13.00;4.65;;;2.60;99.90;;;;;;5047875;28;20436;-47
2024/01/27 05:54:50;;;;;;;10.55;4.25;;;2.60;99.90;;;;;;5032542;28;20100;-45
2024/01/27 05:57:16;;;;;;;11.27;4.50;;;2.50;99.90;;;;;;5047770;28;20022;-43
2024/01/27 05:59:41;;;;;;;17.05;4.90;;;2.60;99.90;;;;;;5032310;28;20029;-45
2024/01/27 06:02:07;;;;;;;9.90;4.00;;;2.60;99.90;;;;;;5031091;28;20469;-46
2024/01/27 06:04:33;;;;;;;11.05;4.50;;;2.50;99.90;;;;;;5032295;28;20029;-46
2024/01/27 06:06:58;;;;;;;14.25;4.47;;;2.50;99.90;;;;;;5032328;28;20101;-48
2024/01/27 06:09:24;;;;;;;14.45;6.03;;;2.50;99.90;;;;;;5032149;28;20049;-48
2024/01/27 06:11:49;;;;;;;14.30;4.60;;;2.50;99.90;;;;;;5030965;28;20018;-49
2024/01/27 06:14:15;;;;;;;12.98;4.55;;;2.50;99.90;;;;;;5032744;28;20413;-48
2024/01/27 06:16:40;;;;;;;16.50;4.90;;;2.50;99.90;;;;;;5032012;28;20061;-47
2024/01/27 06:19:06;;;;;;;13.13;4.70;;;2.50;99.90;;;;;;5030696;28;20025;-45
2024/01/27 06:21:31;;;;;;;12.98;4.38;;;2.40;99.90;;;;;;5030725;28;20026;-44
2024/01/27 06:23:57;;;;;;;6.95;4.40;;;2.30;99.90;;;;;;5031984;28;20095;-50
2024/01/27 06:26:22;;;;;;;12.77;4.55;;;2.40;99.90;;;;;;5031767;28;20022;-48
2024/01/27 06:28:48;;;;;;;10.35;4.68;;;2.50;99.90;;;;;;5031271;28;20021;-48
2024/01/27 06:31:15;;;;;;;21.70;5.40;;;2.30;99.90;;;;;;5030324;28;20408;-47
2024/01/27 06:33:40;;;;;;;11.07;4.60;;;2.30;99.90;;;;;;5031557;28;20029;-47
2024/01/27 06:36:09;;;;;;;12.80;5.45;;;2.30;99.90;;;;;;5030377;28;20421;-45
2024/01/27 06:38:35;;;;;;;6.43;4.25;;;2.20;99.90;;;;;;5031343;28;20087;-45
2024/01/27 06:41:01;;;;;;;15.02;3.92;;;2.20;99.90;;;;;;5031720;28;20030;-46
2024/01/27 06:43:26;;;;;;;8.82;3.90;;;2.20;99.90;;;;;;5030595;28;20159;-46
2024/01/27 06:45:52;;;;;;;15.07;4.95;;;2.10;99.90;;;;;;5031842;28;20492;-46
2024/01/27 06:48:17;;;;;;;13.10;4.40;;;2.10;99.90;;;;;;5030867;28;20025;-47
2024/01/27 06:50:43;;;;;;;14.30;5.13;;;2.10;99.90;;;;;;5031679;28;20505;-48
2024/01/27 06:53:10;;;;;;;10.45;4.85;;;2.10;99.90;;;;;;5031599;28;20033;-47
2024/01/27 06:55:35;;;;;;;14.55;5.72;;;2.10;99.90;;;;;;5031528;28;20022;-47
2024/01/27 06:58:01;;;;;;;22.23;5.93;;;2.10;99.90;;;;;;5031243;28;20041;-48
2024/01/27 07:00:27;;;;;;;16.58;5.43;;;2.00;99.90;;;;;;5031404;28;20477;-44
2024/01/27 07:02:52;;;;;;;14.27;5.63;;;2.00;99.90;;;;;;5031810;28;20332;-47
2024/01/27 07:05:18;;;;;;;11.57;4.82;;;2.00;99.90;;;;;;5030207;28;20024;-43
2024/01/27 07:07:43;;;;;;;11.88;5.03;;;2.10;99.90;;;;;;5030993;28;20026;-45
2024/01/27 07:10:09;;;;;;;12.10;5.95;;;2.00;99.90;;;;;;5029783;28;20140;-49
2024/01/27 07:12:34;;;;;;;10.18;5.50;;;2.00;99.90;;;;;;5031269;28;20069;-44
2024/01/27 07:15:00;;;;;;;11.25;5.40;;;2.00;99.90;;;;;;5031241;28;20025;-45
2024/01/27 07:17:26;;;;;;;16.85;6.47;;;2.00;99.90;;;;;;5031103;28;20033;-48
2024/01/27 07:19:52;;;;;;;14.43;5.70;;;2.00;99.90;;;;;;5031194;28;20435;-43
2024/01/27 07:22:18;;;;;;;14.60;6.22;;;1.90;99.90;;;;;;5031082;28;20032;-45
2024/01/27 07:24:43;;;;;;;13.95;5.50;;;2.00;99.90;;;;;;5030122;28;20029;-41
2024/01/27 07:27:13;;;;;;;17.52;6.95;;;2.00;99.90;;;;;;5030953;28;20022;-43
2024/01/27 07:29:38;;;;;;;14.13;5.53;;;2.00;99.90;;;;;;5030963;28;20025;-45
2024/01/27 07:32:05;;;;;;;13.35;5.95;;;2.00;99.90;;;;;;5031227;28;20514;-45
2024/01/27 07:34:30;;;;;;;16.98;5.47;;;2.10;99.90;;;;;;5033329;28;20431;-45
2024/01/27 07:36:56;;;;;;;16.80;5.80;;;2.10;99.90;;;;;;5030908;28;20060;-44
2024/01/27 07:39:21;;;;;;;19.70;6.80;;;2.10;99.90;;;;;;5029593;28;20134;-42
2024/01/27 07:41:48;;;;;;;16.83;6.45;;;2.10;99.90;;;;;;5030640;28;20079;-43
2024/01/27 07:44:14;;;;;;;13.70;6.10;;;2.20;99.90;;;;;;5031231;28;20025;-45
2024/01/27 07:46:41;;;;;;;12.35;6.45;;;2.20;99.90;;;;;;5031049;28;20040;-44
2024/01/27 07:49:07;;;;;;;19.33;6.18;;;2.20;99.90;;;;;;5030593;28;20520;-46
2024/01/27 07:51:33;;;;;;;12.18;5.60;;;2.20;99.90;;;;;;5030985;28;20068;-52
2024/01/27 07:53:59;;;;;;;19.33;7.00;;;2.20;99.90;;;;;;5023438;28;20397;-42
2024/01/27 07:56:25;;;;;;;18.52;6.68;;;2.30;99.90;;;;;;5029481;28;20040;-44
2024/01/27 07:58:51;;;;;;;14.02;6.75;;;2.40;99.90;;;;;;5031663;28;20030;-45
2024/01/27 08:01:17;;;;;;;11.85;6.50;;;2.50;99.90;;;;;;5034984;28;20029;-41
2024/01/27 08:03:43;;;;;;;16.88;6.38;;;2.50;99.90;;;;;;5034678;28;20083;-43
2024/01/27 08:06:19;;;;;;;14.40;6.07;;;2.60;99.90;;;;;;5034485;28;20485;-41
2024/01/27 08:08:46;;;;;;;11.35;6.65;;;2.70;99.90;;;;;;5034370;28;20489;-42
2024/01/27 08:11:12;;;;;;;13.80;6.53;;;2.80;99.90;;;;;;5034505;28;20473;-43
2024/01/27 08:13:38;;;;;;;15.05;7.15;;;2.80;99.90;;;;;;5034987;28;20465;-44
2024/01/27 08:16:05;;;;;;;11.32;6.20;;;2.80;99.90;;;;;;5034484;28;20045;-44
2024/01/27 08:18:30;;;;;;;15.15;6.15;;;2.80;99.90;;;;;;5032825;28;20112;-44
2024/01/27 08:20:56;;;;;;;19.05;8.10;;;2.80;99.90;;;;;;5032868;28;20025;-45
2024/01/27 08:23:21;;;;;;;24.25;7.97;;;2.80;99.90;;;;;;5034211;28;20032;-49
2024/01/27 08:25:51;;;;;;;8.85;7.10;;;2.80;99.90;;;;;;5034916;28;20041;-46
2024/01/27 08:28:17;;;;;;;15.20;7.20;;;2.90;99.90;;;;;;5033955;28;20021;-41
2024/01/27 08:30:42;;;;;;;11.20;5.57;;;2.90;99.90;;;;;;5033881;28;20484;-45
2024/01/27 08:33:08;;;;;;;11.98;6.18;;;2.90;99.90;;;;;;5033999;28;20039;-55
2024/01/27 08:35:33;;;;;;;14.55;6.93;;;3.00;99.90;;;;;;5034399;28;20034;-44
2024/01/27 08:37:59;;;;;;;10.50;7.07;;;3.10;99.90;;;;;;5033340;28;20443;-54
2024/01/27 08:40:25;;;;;;;14.77;6.35;;;3.10;99.90;;;;;;5033094;28;20033;-60
2024/01/27 08:42:51;;;;;;;14.82;6.60;;;3.20;99.90;;;;;;5032903;28;20013;-46
2024/01/27 08:45:16;;;;;;;16.92;6.63;;;3.30;99.90;;;;;;5033202;28;20084;-47
2024/01/27 08:47:42;;;;;;;19.58;5.72;;;3.40;99.90;;;;;;5034181;28;20037;-45
2024/01/27 08:50:09;;;;;;;13.93;6.35;;;3.40;99.90;;;;;;5033661;28;20045;-47
2024/01/27 08:52:35;;;;;;;20.77;6.35;;;3.50;99.90;;;;;;5033654;28;20021;-47
2024/01/27 08:55:01;;;;;;;14.32;6.47;;;3.50;99.90;;;;;;5033750;28;20024;-48
2024/01/27 08:57:26;;;;;;;15.73;6.75;;;3.40;99.90;;;;;;5032214;28;20029;-48
2024/01/27 08:59:52;;;;;;;18.52;7.10;;;3.50;99.90;;;;;;5033324;28;20370;-46
2024/01/27 09:02:17;;;;;;;16.15;7.70;;;3.50;99.90;;;;;;5033434;28;20056;-46
2024/01/27 09:04:42;;;;;;;13.38;6.95;;;3.70;99.90;;;;;;5033525;28;20408;-47
2024/01/27 09:07:08;;;;;;;15.75;7.45;;;3.70;99.90;;;;;;5033481;28;20026;-47
2024/01/27 09:09:34;;;;;;;14.85;7.03;;;3.70;99.90;;;;;;5032769;28;20017;-46
2024/01/27 09:11:59;;;;;;;22.23;7.15;;;3.90;99.90;;;;;;5033572;28;20035;-48
2024/01/27 09:14:24;;;;;;;13.88;6.90;;;4.10;99.90;;;;;;5033541;28;20026;-48
2024/01/27 09:16:52;;;;;;;12.10;5.40;;;5.00;99.90;;;;;;5032370;28;20033;-45
2024/01/27 09:19:17;;;;;;;18.27;5.50;;;6.30;99.90;;;;;;5032757;28;20026;-47
2024/01/27 09:21:43;;;;;;;17.23;5.05;;;7.30;99.90;;;;;;5033084;28;20025;-46
2024/01/27 09:24:08;;;;;;;17.42;5.53;;;8.30;99.90;;;;;;5032702;28;20025;-49
2024/01/27 09:26:34;;;;;;;10.23;4.63;;;9.10;99.90;;;;;;5032735;28;20025;-47
2024/01/27 09:29:00;;;;;;;7.70;4.60;;;10.80;99.90;;;;;;5032720;28;20126;-48
2024/01/27 09:31:26;;;;;;;7.32;4.38;;;11.00;99.90;;;;;;5033027;28;20222;-45
2024/01/27 09:33:53;;;;;;;15.73;4.47;;;11.80;99.90;;;;;;5032417;28;20119;-45
2024/01/27 09:36:19;;;;;;;9.57;4.63;;;12.60;99.90;;;;;;5031926;28;20025;-48
2024/01/27 09:38:45;;;;;;;9.65;4.03;;;13.40;99.50;;;;;;5031633;28;20030;-46
2024/01/27 09:41:13;;;;;;;6.18;4.22;;;13.90;98.20;;;;;;5032490;28;20061;-45
2024/01/27 09:43:43;;;;;;;12.68;4.00;;;14.00;97.30;;;;;;5033997;28;20021;-48
2024/01/27 09:46:10;;;;;;;12.70;5.05;;;14.50;95.80;;;;;;5032511;28;20048;-42
2024/01/27 09:48:36;;;;;;;13.27;4.35;;;14.80;95.00;;;;;;5032352;28;20163;-41
2024/01/27 09:51:03;;;;;;;10.65;4.55;;;14.70;95.00;;;;;;5032119;28;20057;-45
2024/01/27 09:53:29;;;;;;;11.13;4.20;;;14.50;94.90;;;;;;5036212;28;20071;-43
2024/01/27 09:55:58;;;;;;;13.77;4.38;;;15.20;94.50;;;;;;5032292;28;20026;-41
2024/01/27 09:58:28;;;;;;;9.75;4.55;;;15.50;93.60;;;;;;5032040;28;20025;-44
2024/01/27 10:00:59;;;;;;;14.23;4.03;;;15.10;93.80;;;;;;5032531;28;20463;-44
2024/01/27 10:03:27;;;;;;;10.23;3.97;;;14.70;94.40;;;;;;5031661;28;20048;-43
2024/01/27 10:05:54;;;;;;;9.20;4.00;;;14.50;94.70;;;;;;5032658;28;20056;-45
2024/01/27 10:08:23;;;;;;;8.10;3.30;;;14.70;94.70;;;;;;5031909;28;20478;-43
2024/01/27 10:10:55;;;;;;;8.75;4.13;;;14.60;94.10;;;;;;5032550;28;20030;-42
2024/01/27 10:13:26;;;;;;;9.57;3.50;;;14.90;93.90;;;;;;5031842;28;20088;-44
2024/01/27 10:16:05;;;;;;;8.73;3.50;;;15.20;93.50;;;;;;5032586;28;20026;-44
2024/01/27 10:18:31;;;;;;;6.43;3.78;;;15.30;92.80;;;;;;5031604;28;20065;-47
2024/01/27 10:20:57;;;;;;;12.43;4.35;;;15.50;93.30;;;;;;5031675;28;20052;-50
2024/01/27 10:23:23;;;;;;;12.38;3.53;;;15.80;92.40;;;;;;5030219;28;20021;-43
2024/01/27 10:25:50;;;;;;;13.93;4.80;;;15.50;91.30;;;;;;5032039;28;20104;-44
2024/01/27 10:28:15;;;;;;;7.13;3.40;;;15.30;92.20;;;;;;5031684;28;20022;-41
2024/01/27 10:30:41;;;;;;;10.30;4.35;;;15.10;92.50;;;;;;5029956;28;20400;-44
2024/01/27 10:33:10;;;;;;;8.45;3.72;;;15.10;92.30;;;;;;5030790;28;20029;-44
2024/01/27 10:35:35;;;;;;;102.55;57.17;;;14.80;92.50;;;;;;5031524;28;20032;-44
2024/01/27 10:38:01;;;;;;;38.47;23.70;;;14.80;92.50;;;;;;5031394;28;20025;-45
2024/01/27 10:40:26;;;;;;;67.78;36.83;;;14.60;92.50;;;;;;5030094;28;20025;-46
2024/01/27 10:43:10;;;;;;;10.50;4.70;;;14.30;93.20;;;;;;5031690;28;20061;-42
2024/01/27 10:45:40;;;;;;;13.63;5.03;;;14.30;93.50;;;;;;5031411;28;20459;-45
2024/01/27 10:48:09;;;;;;;8.55;3.78;;;14.50;93.00;;;;;;5032461;28;20021;-44
2024/01/27 10:50:39;;;;;;;9.82;3.40;;;14.40;93.40;;;;;;5031323;28;20025;-48
2024/01/27 10:53:09;;;;;;;7.88;3.90;;;14.20;93.00;;;;;;5030937;28;20033;-46
2024/01/27 10:55:37;;;;;;;16.35;4.85;;;13.90;93.70;;;;;;5020959;28;20110;-44
2024/01/27 10:58:03;;;;;;;10.77;3.88;;;13.70;93.90;;;;;;5031177;28;20505;-42
2024/01/27 11:00:32;;;;;;;10.63;3.60;;;13.20;94.70;;;;;;5031477;28;20048;-49
2024/01/27 11:03:01;;;;;;;14.45;3.78;;;12.80;95.20;;;;;;5032332;28;20044;-45
2024/01/27 11:05:29;;;;;;;13.48;4.20;;;12.80;95.40;;;;;;5031963;28;20500;-39
2024/01/27 11:07:56;;;;;;;7.50;2.88;;;12.40;95.30;;;;;;5031255;28;20457;-41
2024/01/27 11:10:22;;;;;;;12.27;3.72;;;12.20;95.90;;;;;;5028003;28;20397;-47
2024/01/27 11:12:49;;;;;;;11.27;4.03;;;11.90;96.60;;;;;;5031698;28;20028;-50
2024/01/27 11:15:15;;;;;;;12.30;3.55;;;11.60;97.50;;;;;;5031392;28;20067;-43
2024/01/27 11:17:41;;;;;;;9.05;3.88;;;11.40;98.10;;;;;;5031168;28;20037;-41
2024/01/27 11:20:11;;;;;;;8.23;4.20;;;11.20;98.40;;;;;;5030943;28;20045;-47
2024/01/27 11:22:37;;;;;;;13.57;4.97;;;10.90;99.20;;;;;;5031091;28;20079;-46
2024/01/27 11:25:12;;;;;;;14.80;4.72;;;10.50;99.90;;;;;;5031990;28;20029;-47
2024/01/27 11:27:43;;;;;;;10.63;4.33;;;10.20;99.90;;;;;;5031319;28;20424;-45
2024/01/27 11:30:35;;;;;;;6.70;3.88;;;10.00;99.90;;;;;;5030978;28;20256;-44
2024/01/27 11:33:03;;;;;;;11.10;5.20;;;;;;;;;;5032467;28;20022;-44
2024/01/27 11:35:28;;;;;;;12.90;5.15;;;9.40;99.90;;;;;;5035362;28;20021;-43
2024/01/27 11:37:54;;;;;;;14.15;4.47;;;9.10;99.90;;;;;;5034398;28;20647;-47
2024/01/27 11:40:21;;;;;;;12.20;3.45;;;8.90;99.90;;;;;;5032748;28;20033;-45
2024/01/27 11:43:00;;;;;;;12.48;3.90;;;8.70;99.90;;;;;;5035712;28;20029;-49
2024/01/27 11:45:28;;;;;;;13.05;5.55;;;8.60;99.90;;;;;;5034428;28;20040;-47
2024/01/27 11:47:55;;;;;;;10.40;4.22;;;8.40;99.90;;;;;;5034623;28;20393;-46
2024/01/27 11:50:21;;;;;;;9.90;4.25;;;8.20;99.90;;;;;;5033783;28;20453;-45
2024/01/27 11:52:47;;;;;;;11.68;3.92;;;8.20;99.90;;;;;;5035074;28;20116;-46
2024/01/27 11:55:15;;;;;;;15.50;4.53;;;8.10;99.90;;;;;;5034561;28;20397;-43
2024/01/27 12:13:34;;;;;;;;;;;8.60;99.90;;;;;;5072174;27;20449;-47
2024/01/27 12:15:59;;;;;;;10.20;3.67;;;7.70;99.90;;;;;;5043984;28;19920;-45
2024/01/27 12:18:25;;;;;;;13.57;4.82;;;7.60;99.90;;;;;;5028954;28;20105;-45
2024/01/27 12:20:56;;;;;;;13.50;4.13;;;7.60;99.90;;;;;;5028387;28;20111;-45
2024/01/27 12:23:21;;;;;;;17.23;6.63;;;7.60;99.90;;;;;;5027544;28;20041;-48
2024/01/27 12:25:55;;;;;;;10.90;5.05;;;7.60;99.90;;;;;;5028358;28;20441;-45
2024/01/27 12:28:23;;;;;;;12.85;5.43;;;7.60;99.90;;;;;;5027671;28;20505;-49
2024/01/27 12:30:50;;;;;;;13.98;4.68;;;7.60;99.90;;;;;;5028209;28;20028;-45
2024/01/27 12:33:19;;;;;;;14.02;4.35;;;7.50;99.90;;;;;;5028043;28;20101;-45
2024/01/27 12:35:45;;;;;;;19.23;5.82;;;7.50;99.90;;;;;;5028824;28;20021;-43
2024/01/27 12:38:11;;;;;;;11.32;4.22;;;7.40;99.90;;;;;;5029124;28;20054;-46
2024/01/27 12:40:38;;;;;;;11.75;4.22;;;7.40;99.90;;;;;;5028306;28;20121;-46
2024/01/27 12:43:03;;;;;;;16.70;5.72;;;7.40;99.90;;;;;;5028617;28;20041;-44
2024/01/27 12:45:29;;;;;;;9.80;4.93;;;7.50;99.90;;;;;;5029066;28;20398;-46
2024/01/27 12:47:55;;;;;;;14.70;5.20;;;7.50;99.90;;;;;;5027894;28;20018;-48
2024/01/27 12:50:21;;;;;;;13.50;4.60;;;7.60;99.90;;;;;;5027851;28;20036;-44
2024/01/27 12:52:47;;;;;;;15.70;5.80;;;7.60;99.90;;;;;;5028436;28;20018;-49
2024/01/27 12:55:12;;;;;;;15.65;5.53;;;7.60;99.90;;;;;;5028992;28;20606;-39
2024/01/27 12:57:39;;;;;;;12.75;4.85;;;7.60;99.90;;;;;;5029926;28;20040;-48
2024/01/27 13:00:09;;;;;;;18.42;5.88;;;7.60;99.90;;;;;;5029259;28;20641;-44